createdAt,value
2018-04-14T00:01:48.354Z,14.50
2018-04-14T00:04:15.857Z,14.50
2018-04-14T00:06:43.349Z,14.40
2018-04-14T00:09:10.863Z,14.30
2018-04-14T00:11:38.362Z,14.30
2018-04-14T00:14:06.630Z,14.10
2018-04-14T00:16:34.902Z,13.90
2018-04-14T00:19:03.165Z,13.60
2018-04-14T00:21:30.661Z,13.60
2018-04-14T00:23:58.235Z,13.50
2018-04-14T00:26:25.738Z,13.50
2018-04-14T00:28:54.737Z,13.40
2018-04-14T00:31:23.009Z,13.40
2018-04-14T00:33:50.529Z,13.30
2018-04-14T00:36:18.026Z,13.30
2018-04-14T00:38:45.522Z,13.30
2018-04-14T00:41:13.034Z,13.30
2018-04-14T00:43:40.529Z,13.30
2018-04-14T00:46:08.797Z,13.40
2018-04-14T00:48:37.058Z,13.40
2018-04-14T00:51:04.553Z,13.40
2018-04-14T00:53:43.702Z,13.40
2018-04-14T00:56:11.218Z,13.50
2018-04-14T00:58:39.477Z,13.40
2018-04-14T01:01:06.988Z,13.40
2018-04-14T01:03:34.505Z,13.40
2018-04-14T01:06:02.016Z,13.40
2018-04-14T01:08:30.385Z,13.40
2018-04-14T01:10:57.906Z,13.30
2018-04-14T01:13:26.169Z,13.30
2018-04-14T01:15:53.674Z,13.30
2018-04-14T01:18:21.178Z,13.30
2018-04-14T01:20:48.687Z,13.30
2018-04-14T01:23:16.202Z,13.30
2018-04-14T01:25:43.729Z,13.40
2018-04-14T01:28:11.244Z,13.40
2018-04-14T01:30:39.525Z,13.40
2018-04-14T01:33:07.790Z,13.40
2018-04-14T01:35:36.054Z,13.30
2018-04-14T01:38:03.574Z,13.30
2018-04-14T01:40:31.077Z,13.30
2018-04-14T01:42:58.589Z,13.40
2018-04-14T01:45:26.082Z,13.40
2018-04-14T01:47:53.584Z,13.30
2018-04-14T01:50:21.107Z,13.30
2018-04-14T01:52:48.607Z,13.20
2018-04-14T01:55:16.118Z,13.20
2018-04-14T01:57:45.124Z,13.20
2018-04-14T02:00:13.405Z,13.10
2018-04-14T02:02:41.682Z,13.10
2018-04-14T02:05:09.958Z,13.00
2018-04-14T02:07:38.230Z,12.80
2018-04-14T02:10:06.502Z,12.80
2018-04-14T02:12:34.766Z,12.80
2018-04-14T02:15:02.286Z,12.70
2018-04-14T02:17:29.793Z,12.80
2018-04-14T02:19:57.285Z,12.80
2018-04-14T02:22:24.794Z,12.70
2018-04-14T02:24:53.062Z,12.70
2018-04-14T02:27:20.581Z,12.70
2018-04-14T02:29:48.653Z,12.70
2018-04-14T02:32:16.157Z,12.70
2018-04-14T02:34:43.672Z,12.60
2018-04-14T02:37:11.198Z,12.60
2018-04-14T02:39:39.483Z,12.50
2018-04-14T02:42:07.755Z,12.50
2018-04-14T02:44:36.042Z,12.40
2018-04-14T02:47:04.307Z,12.40
2018-04-14T02:49:32.579Z,12.30
2018-04-14T02:52:00.859Z,12.30
2018-04-14T02:54:29.121Z,12.30
2018-04-14T02:56:57.410Z,12.30
2018-04-14T02:59:24.927Z,12.20
2018-04-14T03:01:52.430Z,12.20
2018-04-14T03:04:20.698Z,12.10
2018-04-14T03:06:48.984Z,12.10
2018-04-14T03:09:17.267Z,12.10
2018-04-14T03:11:45.529Z,12.10
2018-04-14T03:14:13.797Z,12.10
2018-04-14T03:16:41.305Z,12.00
2018-04-14T03:19:08.814Z,12.10
2018-04-14T03:21:37.082Z,12.00
2018-04-14T03:24:04.570Z,12.00
2018-04-14T03:26:32.846Z,11.90
2018-04-14T03:29:01.114Z,11.90
2018-04-14T03:31:29.382Z,11.90
2018-04-14T03:33:57.653Z,11.90
2018-04-14T03:36:25.158Z,11.80
2018-04-14T03:38:52.659Z,11.80
2018-04-14T03:41:20.178Z,11.80
2018-04-14T03:43:47.693Z,11.70
2018-04-14T03:46:15.961Z,11.50
2018-04-14T03:48:43.471Z,11.50
2018-04-14T03:51:10.977Z,11.40
2018-04-14T03:53:38.499Z,11.40
2018-04-14T03:56:06.010Z,11.40
2018-04-14T03:58:34.289Z,11.40
2018-04-14T04:01:02.551Z,11.40
2018-04-14T04:03:30.054Z,11.40
2018-04-14T04:05:57.573Z,11.40
2018-04-14T04:08:25.841Z,11.30
2018-04-14T04:10:53.370Z,11.30
2018-04-14T04:13:20.869Z,11.30
2018-04-14T04:15:49.190Z,11.30
2018-04-14T04:18:29.557Z,11.10
2018-04-14T04:21:08.917Z,11.10
2018-04-14T04:23:49.153Z,11.00
2018-04-14T04:26:16.655Z,11.00
2018-04-14T04:28:44.180Z,11.00
2018-04-14T04:31:11.685Z,11.00
2018-04-14T04:33:39.954Z,10.90
2018-04-14T04:36:08.217Z,10.90
2018-04-14T04:38:35.713Z,10.90
2018-04-14T04:41:03.226Z,10.90
2018-04-14T04:43:30.734Z,10.90
2018-04-14T04:45:58.244Z,11.00
2018-04-14T04:48:25.765Z,11.10
2018-04-14T04:50:53.277Z,11.10
2018-04-14T04:53:21.542Z,11.20
2018-04-14T04:55:49.057Z,11.20
2018-04-14T04:58:16.570Z,11.20
2018-04-14T05:00:44.838Z,11.30
2018-04-14T05:03:12.365Z,11.30
2018-04-14T05:05:39.879Z,11.40
2018-04-14T05:08:08.145Z,11.40
2018-04-14T05:10:36.426Z,11.50
2018-04-14T05:13:04.694Z,11.50
2018-04-14T05:15:32.958Z,11.60
2018-04-14T05:18:01.237Z,11.60
2018-04-14T05:20:28.752Z,11.60
2018-04-14T05:22:56.249Z,11.60
2018-04-14T05:25:23.785Z,11.70
2018-04-14T05:27:51.282Z,11.70
2018-04-14T05:30:19.567Z,11.80
2018-04-14T05:32:47.854Z,11.90
2018-04-14T05:35:15.360Z,11.80
2018-04-14T05:37:42.878Z,11.90
2018-04-14T05:40:10.378Z,12.00
2018-04-14T05:42:37.889Z,12.00
2018-04-14T05:45:06.153Z,12.10
2018-04-14T05:47:34.423Z,12.20
2018-04-14T05:50:02.687Z,12.20
2018-04-14T05:52:30.206Z,12.20
2018-04-14T05:54:57.723Z,12.30
2018-04-14T05:57:26.001Z,12.40
2018-04-14T05:59:54.261Z,12.50
2018-04-14T06:02:21.778Z,12.50
2018-04-14T06:04:49.290Z,12.60
2018-04-14T06:07:17.575Z,12.70
2018-04-14T06:09:45.846Z,12.80
2018-04-14T06:12:14.113Z,12.80
2018-04-14T06:14:41.633Z,12.80
2018-04-14T06:17:09.130Z,12.90
2018-04-14T06:19:36.645Z,13.10
2018-04-14T06:22:04.178Z,13.30
2018-04-14T06:24:31.684Z,13.50
2018-04-14T06:26:59.178Z,13.60
2018-04-14T06:29:27.457Z,13.60
2018-04-14T06:31:54.977Z,13.60
2018-04-14T06:34:22.470Z,13.60
2018-04-14T06:36:50.734Z,13.50
2018-04-14T06:39:19.746Z,13.50
2018-04-14T06:41:47.258Z,13.50
2018-04-14T06:44:14.761Z,13.60
2018-04-14T06:46:43.027Z,13.70
2018-04-14T06:49:11.297Z,13.80
2018-04-14T06:51:38.796Z,13.70
2018-04-14T06:54:06.359Z,13.80
2018-04-14T06:56:33.853Z,13.90
2018-04-14T06:59:01.366Z,14.00
2018-04-14T07:01:28.859Z,14.10
2018-04-14T07:03:56.354Z,14.20
2018-04-14T07:06:24.617Z,14.30
2018-04-14T07:08:52.111Z,14.30
2018-04-14T07:11:19.616Z,14.40
2018-04-14T07:13:47.134Z,14.40
2018-04-14T07:16:14.630Z,14.50
2018-04-14T07:18:42.125Z,14.60
2018-04-14T07:21:10.386Z,14.80
2018-04-14T07:23:38.749Z,15.00
2018-04-14T07:26:06.242Z,14.90
2018-04-14T07:28:34.509Z,15.00
2018-04-14T07:31:02.782Z,15.00
2018-04-14T07:33:31.061Z,15.10
2018-04-14T07:35:59.345Z,15.30
2018-04-14T07:38:27.601Z,15.40
2018-04-14T07:40:55.892Z,15.50
2018-04-14T07:43:24.154Z,15.50
2018-04-14T07:45:51.677Z,15.50
2018-04-14T07:48:19.191Z,15.60
2018-04-14T07:50:47.456Z,15.60
2018-04-14T07:53:14.953Z,15.60
2018-04-14T07:55:42.462Z,15.70
2018-04-14T07:58:09.958Z,15.70
2018-04-14T08:00:37.453Z,15.70
2018-04-14T08:03:04.958Z,15.80
2018-04-14T08:05:33.234Z,15.90
2018-04-14T08:08:01.489Z,15.90
2018-04-14T08:10:28.993Z,15.90
2018-04-14T08:12:56.501Z,16.00
2018-04-14T08:15:23.998Z,16.10
2018-04-14T08:17:51.495Z,16.20
2018-04-14T08:20:19.003Z,16.30
2018-04-14T08:22:46.516Z,16.50
2018-04-14T08:25:14.076Z,16.60
2018-04-14T08:27:41.594Z,16.60
2018-04-14T08:30:09.138Z,16.70
2018-04-14T08:32:36.614Z,16.60
2018-04-14T08:35:04.114Z,16.70
2018-04-14T08:37:31.657Z,16.80
2018-04-14T08:39:59.909Z,17.00
2018-04-14T08:42:27.426Z,16.90
2018-04-14T08:44:54.938Z,17.00
2018-04-14T08:47:22.491Z,17.10
2018-04-14T08:49:50.738Z,17.20
2018-04-14T08:52:20.590Z,17.40
2018-04-14T08:54:48.092Z,17.40
2018-04-14T08:57:15.625Z,17.60
2018-04-14T08:59:43.121Z,17.60
2018-04-14T09:02:10.618Z,17.70
2018-04-14T09:04:41.209Z,17.80
2018-04-14T09:07:09.782Z,18.00
2018-04-14T09:09:37.296Z,18.00
2018-04-14T09:12:04.821Z,18.10
2018-04-14T09:14:33.085Z,18.40
2018-04-14T09:17:01.346Z,18.40
2018-04-14T09:19:30.374Z,18.50
2018-04-14T09:21:58.638Z,18.60
2018-04-14T09:24:26.913Z,18.60
2018-04-14T09:26:55.199Z,18.70
2018-04-14T09:29:23.504Z,18.80
2018-04-14T09:31:51.035Z,18.80
2018-04-14T09:34:19.297Z,19.00
2018-04-14T09:36:47.557Z,19.10
2018-04-14T09:39:15.078Z,19.10
2018-04-14T09:41:42.574Z,19.20
2018-04-14T09:44:10.093Z,19.30
2018-04-14T09:46:37.610Z,19.40
2018-04-14T09:49:05.873Z,19.50
2018-04-14T09:51:34.154Z,19.70
2018-04-14T09:54:02.438Z,19.80
2018-04-14T09:56:30.743Z,19.80
2018-04-14T09:58:58.965Z,19.90
2018-04-14T10:01:27.287Z,19.90
2018-04-14T10:03:58.078Z,20.20
2018-04-14T10:06:25.585Z,20.10
2018-04-14T10:08:53.844Z,20.30
2018-04-14T10:11:22.114Z,20.30
2018-04-14T10:13:49.622Z,20.30
2018-04-14T10:16:17.173Z,20.40
2018-04-14T10:18:45.450Z,20.60
2018-04-14T10:21:12.967Z,20.60
2018-04-14T10:23:41.288Z,20.80
2018-04-14T10:26:08.794Z,20.80
2018-04-14T10:28:36.289Z,20.90
2018-04-14T10:31:03.782Z,21.00
2018-04-14T10:33:31.281Z,21.10
2018-04-14T10:35:58.883Z,21.20
2018-04-14T10:38:26.405Z,21.20
2018-04-14T10:40:54.669Z,21.40
2018-04-14T10:43:22.169Z,21.30
2018-04-14T10:45:49.669Z,21.50
2018-04-14T10:48:17.180Z,21.70
2018-04-14T10:50:44.693Z,21.80
2018-04-14T10:53:13.089Z,22.00
2018-04-14T10:55:41.345Z,22.10
2018-04-14T10:58:09.684Z,22.20
2018-04-14T11:00:37.179Z,22.10
2018-04-14T11:03:04.669Z,22.20
2018-04-14T11:05:32.940Z,22.30
2018-04-14T11:08:01.216Z,22.40
2018-04-14T11:10:29.485Z,22.50
2018-04-14T11:12:56.976Z,22.50
2018-04-14T11:15:24.481Z,22.50
2018-04-14T11:17:51.982Z,22.60
2018-04-14T11:20:20.246Z,23.00
2018-04-14T11:22:48.513Z,23.10
2018-04-14T11:25:16.009Z,23.10
2018-04-14T11:27:43.513Z,23.20
2018-04-14T11:30:11.017Z,23.30
2018-04-14T11:32:38.521Z,23.40
2018-04-14T11:35:06.048Z,23.50
2018-04-14T11:37:33.542Z,23.50
2018-04-14T11:40:01.038Z,23.40
2018-04-14T11:42:29.300Z,23.50
2018-04-14T11:44:56.800Z,23.50
2018-04-14T11:47:24.324Z,23.60
2018-04-14T11:49:51.829Z,23.80
2018-04-14T11:52:19.377Z,23.90
2018-04-14T11:54:46.872Z,24.10
2018-04-14T11:57:14.378Z,24.20
2018-04-14T11:59:41.877Z,24.30
2018-04-14T12:02:09.386Z,24.20
2018-04-14T12:04:36.905Z,24.20
2018-04-14T12:07:04.414Z,24.30
2018-04-14T12:09:31.922Z,24.50
2018-04-14T12:11:59.426Z,24.50
2018-04-14T12:14:26.938Z,24.60
2018-04-14T12:16:54.438Z,24.70
2018-04-14T12:19:22.726Z,24.90
2018-04-14T12:21:50.231Z,24.90
2018-04-14T12:24:17.724Z,24.80
2018-04-14T12:26:45.993Z,24.60
2018-04-14T12:29:14.253Z,24.80
2018-04-14T12:31:41.763Z,24.80
2018-04-14T12:34:09.262Z,24.80
2018-04-14T12:36:36.761Z,24.70
2018-04-14T12:39:05.052Z,24.60
2018-04-14T12:41:32.578Z,24.60
2018-04-14T12:44:00.858Z,25.20
2018-04-14T12:46:29.158Z,25.40
2018-04-14T12:48:56.658Z,25.40
2018-04-14T12:51:24.938Z,25.90
2018-04-14T12:53:52.450Z,25.90
2018-04-14T12:56:19.987Z,25.90
2018-04-14T12:58:48.254Z,25.70
2018-04-14T13:01:15.756Z,25.70
2018-04-14T13:03:43.270Z,26.10
2018-04-14T13:06:10.783Z,26.50
2018-04-14T13:08:38.283Z,26.90
2018-04-14T13:11:05.789Z,27.20
2018-04-14T13:13:33.284Z,27.30
2018-04-14T13:16:00.807Z,27.40
2018-04-14T13:18:28.329Z,27.40
2018-04-14T13:20:56.598Z,26.90
2018-04-14T13:23:24.095Z,26.90
2018-04-14T13:25:51.633Z,26.50
2018-04-14T13:28:19.886Z,26.80
2018-04-14T13:30:47.381Z,26.80
2018-04-14T13:33:14.875Z,26.90
2018-04-14T13:35:42.369Z,26.40
2018-04-14T13:38:10.688Z,25.60
2018-04-14T13:40:38.213Z,25.60
2018-04-14T13:43:06.523Z,25.80
2018-04-14T13:45:34.018Z,25.80
2018-04-14T13:48:01.509Z,25.80
2018-04-14T13:50:29.781Z,25.80
2018-04-14T13:52:58.082Z,25.70
2018-04-14T13:55:25.577Z,25.70
2018-04-14T13:57:53.074Z,25.50
2018-04-14T14:00:21.348Z,25.20
2018-04-14T14:02:49.626Z,25.00
2018-04-14T14:05:17.941Z,25.00
2018-04-14T14:07:45.448Z,25.00
2018-04-14T14:10:12.938Z,25.10
2018-04-14T14:12:40.449Z,24.90
2018-04-14T14:15:07.958Z,25.00
2018-04-14T14:17:35.462Z,25.00
2018-04-14T14:20:02.966Z,25.40
2018-04-14T14:22:31.226Z,26.30
2018-04-14T14:24:58.758Z,26.30
2018-04-14T14:27:26.252Z,26.40
2018-04-14T14:29:54.531Z,26.90
2018-04-14T14:32:22.805Z,27.30
2018-04-14T14:34:51.062Z,27.30
2018-04-14T14:37:18.575Z,27.20
2018-04-14T14:39:46.089Z,27.50
2018-04-14T14:42:14.361Z,27.90
2018-04-14T14:44:41.866Z,27.90
2018-04-14T14:47:09.382Z,28.00
2018-04-14T14:49:36.879Z,28.30
2018-04-14T14:52:04.386Z,28.70
2018-04-14T14:54:31.882Z,29.10
2018-04-14T14:56:59.390Z,29.90
2018-04-14T14:59:26.921Z,30.30
2018-04-14T15:01:54.422Z,31.00
2018-04-14T15:04:21.918Z,31.70
2018-04-14T15:06:49.433Z,32.40
2018-04-14T15:09:16.958Z,32.90
2018-04-14T15:11:44.458Z,31.90
2018-04-14T15:14:11.945Z,30.60
2018-04-14T15:16:40.214Z,29.70
2018-04-14T15:19:08.494Z,29.10
2018-04-14T15:21:36.751Z,28.70
2018-04-14T15:24:05.030Z,28.70
2018-04-14T15:26:32.533Z,28.70
2018-04-14T15:29:00.045Z,29.20
2018-04-14T15:31:27.543Z,29.80
2018-04-14T15:33:55.036Z,30.60
2018-04-14T15:36:22.537Z,31.00
2018-04-14T15:38:50.797Z,30.50
2018-04-14T15:41:19.073Z,30.20
2018-04-14T15:43:47.356Z,30.10
2018-04-14T15:46:15.626Z,29.90
2018-04-14T15:48:43.905Z,29.70
2018-04-14T15:51:12.168Z,29.80
2018-04-14T15:53:39.690Z,29.80
2018-04-14T15:56:07.194Z,30.00
2018-04-14T15:58:34.690Z,30.20
2018-04-14T16:01:02.191Z,30.60
2018-04-14T16:03:29.694Z,30.90
2018-04-14T16:05:57.198Z,30.90
2018-04-14T16:08:24.702Z,30.90
2018-04-14T16:10:53.004Z,30.80
2018-04-14T16:13:20.510Z,30.80
2018-04-14T16:15:48.019Z,30.60
2018-04-14T16:18:16.005Z,30.50
2018-04-14T16:20:43.510Z,30.00
2018-04-14T16:23:11.786Z,29.60
2018-04-14T16:25:40.047Z,29.30
2018-04-14T16:28:07.551Z,29.30
2018-04-14T16:30:35.062Z,28.60
2018-04-14T16:33:02.562Z,27.90
2018-04-14T16:35:30.054Z,27.00
2018-04-14T16:37:57.570Z,26.10
2018-04-14T16:40:25.871Z,25.00
2018-04-14T16:42:53.392Z,25.00
2018-04-14T16:45:22.208Z,24.30
2018-04-14T16:47:49.710Z,24.30
2018-04-14T16:50:17.205Z,23.90
2018-04-14T16:52:45.475Z,23.40
2018-04-14T16:55:13.000Z,23.40
2018-04-14T16:57:40.514Z,23.10
2018-04-14T17:00:08.026Z,22.90
2018-04-14T17:02:35.517Z,22.60
2018-04-14T17:05:03.774Z,22.30
2018-04-14T17:07:31.279Z,22.30
2018-04-14T17:09:58.778Z,22.20
2018-04-14T17:12:26.292Z,22.10
2018-04-14T17:14:53.793Z,22.10
2018-04-14T17:17:21.310Z,21.80
2018-04-14T17:19:48.809Z,21.80
2018-04-14T17:22:16.310Z,21.80
2018-04-14T17:24:44.574Z,21.70
2018-04-14T17:27:12.854Z,21.60
2018-04-14T17:29:41.120Z,21.50
2018-04-14T17:32:08.628Z,21.50
2018-04-14T17:34:36.118Z,21.40
2018-04-14T17:37:04.381Z,21.20
2018-04-14T17:39:31.889Z,21.10
2018-04-14T17:42:00.176Z,21.00
2018-04-14T17:44:27.686Z,21.00
2018-04-14T17:46:56.693Z,20.90
2018-04-14T17:49:24.193Z,20.90
2018-04-14T17:51:51.685Z,20.80
2018-04-14T17:54:19.198Z,20.70
2018-04-14T17:56:46.704Z,20.70
2018-04-14T17:59:14.198Z,20.60
2018-04-14T18:01:42.476Z,20.50
2018-04-14T18:04:10.762Z,20.40
2018-04-14T18:06:39.021Z,20.40
2018-04-14T18:09:07.294Z,20.30
2018-04-14T18:11:34.809Z,20.30
2018-04-14T18:14:02.301Z,20.30
2018-04-14T18:16:30.566Z,20.20
2018-04-14T18:18:58.065Z,20.20
2018-04-14T18:21:26.337Z,20.10
2018-04-14T18:23:54.589Z,20.10
2018-04-14T18:26:22.867Z,20.00
2018-04-14T18:28:50.361Z,20.00
2018-04-14T18:31:18.033Z,20.00
2018-04-14T18:33:45.540Z,19.90
2018-04-14T18:36:13.104Z,19.80
2018-04-14T18:38:40.602Z,19.70
2018-04-14T18:41:08.126Z,19.60
2018-04-14T18:43:36.418Z,19.50
2018-04-14T18:46:04.685Z,19.40
2018-04-14T18:48:33.007Z,19.30
2018-04-14T18:51:00.518Z,19.30
2018-04-14T18:53:28.029Z,19.30
2018-04-14T18:55:55.541Z,19.20
2018-04-14T18:58:23.814Z,19.10
2018-04-14T19:00:52.131Z,19.00
2018-04-14T19:03:19.626Z,18.90
2018-04-14T19:05:47.119Z,18.80
2018-04-14T19:08:15.383Z,18.60
2018-04-14T19:10:43.658Z,18.50
2018-04-14T19:13:11.148Z,18.50
2018-04-14T19:15:38.642Z,18.40
2018-04-14T19:18:06.149Z,18.30
2018-04-14T19:20:34.411Z,18.20
2018-04-14T19:23:01.924Z,18.10
2018-04-14T19:25:29.439Z,18.10
2018-04-14T19:27:57.710Z,17.90
2018-04-14T19:30:26.000Z,17.90
2018-04-14T19:32:53.516Z,17.90
2018-04-14T19:35:21.024Z,17.80
2018-04-14T19:37:48.614Z,17.70
2018-04-14T19:40:16.839Z,17.60
2018-04-14T19:42:45.109Z,17.50
2018-04-14T19:45:13.382Z,17.40
2018-04-14T19:47:41.670Z,17.40
2018-04-14T19:50:09.942Z,17.30
2018-04-14T19:52:38.214Z,17.20
2018-04-14T19:55:06.478Z,17.20
2018-04-14T19:57:33.986Z,17.20
2018-04-14T20:00:01.494Z,17.10
2018-04-14T20:02:29.003Z,17.10
2018-04-14T20:04:56.529Z,17.00
2018-04-14T20:07:24.818Z,16.90
2018-04-14T20:09:52.321Z,16.90
2018-04-14T20:12:19.861Z,16.80
2018-04-14T20:14:47.350Z,16.80
2018-04-14T20:17:16.361Z,16.60
2018-04-14T20:19:43.902Z,16.60
2018-04-14T20:22:11.371Z,16.60
2018-04-14T20:24:38.865Z,16.50
2018-04-14T20:27:07.137Z,16.50
2018-04-14T20:29:35.441Z,16.40
2018-04-14T20:32:02.943Z,16.40
2018-04-14T20:34:30.458Z,16.40
2018-04-14T20:36:57.974Z,16.30
2018-04-14T20:39:25.494Z,16.30
2018-04-14T20:41:52.998Z,16.20
2018-04-14T20:44:21.259Z,16.10
2018-04-14T20:46:48.754Z,16.10
2018-04-14T20:49:16.259Z,16.10
2018-04-14T20:51:43.769Z,16.00
2018-04-14T20:54:11.278Z,16.00
2018-04-14T20:56:38.773Z,16.00
2018-04-14T20:59:06.289Z,16.00
2018-04-14T21:01:33.786Z,15.90
2018-04-14T21:04:02.069Z,15.90
2018-04-14T21:06:30.338Z,15.80
2018-04-14T21:08:58.597Z,15.70
2018-04-14T21:11:26.108Z,15.70
2018-04-14T21:13:53.606Z,15.70
2018-04-14T21:16:21.108Z,15.60
2018-04-14T21:18:48.619Z,15.60
2018-04-14T21:21:16.134Z,15.60
2018-04-14T21:23:43.637Z,15.60
2018-04-14T21:26:11.133Z,15.70
2018-04-14T21:28:38.630Z,15.80
2018-04-14T21:31:06.130Z,15.80
2018-04-14T21:33:33.650Z,15.80
2018-04-14T21:36:01.149Z,15.80
2018-04-14T21:38:29.414Z,15.90
2018-04-14T21:40:58.419Z,16.00
2018-04-14T21:43:26.698Z,16.00
2018-04-14T21:45:54.965Z,16.00
2018-04-14T21:48:23.245Z,16.10
2018-04-14T21:50:51.518Z,16.20
2018-04-14T21:53:19.021Z,16.20
2018-04-14T21:55:46.529Z,16.30
2018-04-14T21:58:14.067Z,16.30
2018-04-14T22:00:41.588Z,16.30
2018-04-14T22:03:09.086Z,16.30
2018-04-14T22:05:36.601Z,16.30
2018-04-14T22:08:04.109Z,16.30
2018-04-14T22:10:31.607Z,16.30
2018-04-14T22:12:59.886Z,16.40
2018-04-14T22:15:27.406Z,16.40
2018-04-14T22:17:55.677Z,16.50
2018-04-14T22:20:23.179Z,16.50
2018-04-14T22:22:50.691Z,16.50
2018-04-14T22:25:18.202Z,16.60
2018-04-14T22:27:45.702Z,16.60
2018-04-14T22:30:13.205Z,16.60
2018-04-14T22:32:41.485Z,16.60
2018-04-14T22:35:09.746Z,16.50
2018-04-14T22:37:38.068Z,16.50
2018-04-14T22:40:05.553Z,16.50
2018-04-14T22:42:33.072Z,16.50
2018-04-14T22:45:00.599Z,16.40
2018-04-14T22:47:28.102Z,16.40
2018-04-14T22:49:55.617Z,16.30
2018-04-14T22:52:23.882Z,16.20
2018-04-14T22:54:51.394Z,16.20
2018-04-14T22:57:18.885Z,16.10
2018-04-14T22:59:46.393Z,16.10
2018-04-14T23:02:13.914Z,16.00
2018-04-14T23:04:41.431Z,15.80
2018-04-14T23:07:08.925Z,15.80
2018-04-14T23:09:36.445Z,15.80
2018-04-14T23:12:03.969Z,15.80
2018-04-14T23:14:32.251Z,15.90
2018-04-14T23:17:00.518Z,15.80
2018-04-14T23:19:28.796Z,15.80
2018-04-14T23:21:57.071Z,15.90
2018-04-14T23:24:25.341Z,15.80
2018-04-14T23:26:53.621Z,15.80
2018-04-14T23:29:21.890Z,15.70
2018-04-14T23:31:49.386Z,15.70
2018-04-14T23:34:16.901Z,15.70
2018-04-14T23:36:44.398Z,15.60
2018-04-14T23:39:11.906Z,15.60
2018-04-14T23:41:39.403Z,15.50
2018-04-14T23:44:07.682Z,15.40
2018-04-14T23:46:36.174Z,15.40
2018-04-14T23:49:03.673Z,15.30
2018-04-14T23:51:31.175Z,15.30
2018-04-14T23:53:59.445Z,15.30
2018-04-14T23:56:27.714Z,15.30
2018-04-14T23:58:55.213Z,15.30
